createdAt,value
2018-10-18T00:00:07.976Z,95.56
2018-10-18T00:01:07.823Z,95.17
2018-10-18T00:02:07.762Z,94.89
2018-10-18T00:03:07.710Z,95.46
2018-10-18T00:04:07.590Z,95.27
2018-10-18T00:05:07.507Z,95.27
2018-10-18T00:06:07.514Z,94.98
2018-10-18T00:07:07.350Z,95.56
2018-10-18T00:08:07.335Z,94.89
2018-10-18T00:09:07.191Z,95.75
2018-10-18T00:10:07.112Z,94.79
2018-10-18T00:11:07.033Z,95.75
2018-10-18T00:12:07.057Z,95.56
2018-10-18T00:13:06.879Z,95.36
2018-10-18T00:14:06.927Z,95.27
2018-10-18T00:15:06.715Z,95.17
2018-10-18T00:16:06.635Z,95.36
2018-10-18T00:17:06.558Z,95.56
2018-10-18T00:18:06.531Z,95.46
2018-10-18T00:19:06.404Z,95.46
2018-10-18T00:20:06.408Z,94.89
2018-10-18T00:21:06.238Z,95.36
2018-10-18T00:22:06.161Z,95.46
2018-10-18T00:23:06.083Z,94.89
2018-10-18T00:24:06.070Z,95.27
2018-10-18T00:25:05.920Z,95.17
2018-10-18T00:26:05.896Z,94.51
2018-10-18T00:27:05.767Z,94.31
2018-10-18T00:28:05.684Z,94.51
2018-10-18T00:29:05.606Z,94.70
2018-10-18T00:30:05.609Z,94.89
2018-10-18T00:31:05.448Z,95.65
2018-10-18T00:32:05.383Z,94.70
2018-10-18T00:33:05.288Z,94.89
2018-10-18T00:34:05.208Z,95.75
2018-10-18T00:35:05.129Z,95.75
2018-10-18T00:36:05.110Z,95.56
2018-10-18T00:37:04.970Z,95.46
2018-10-18T00:38:04.923Z,95.84
2018-10-18T00:39:04.813Z,94.79
2018-10-18T00:40:04.733Z,95.65
2018-10-18T00:41:04.652Z,94.89
2018-10-18T00:42:04.625Z,94.89
2018-10-18T00:43:04.497Z,95.17
2018-10-18T00:44:04.511Z,94.98
2018-10-18T00:45:04.335Z,94.79
2018-10-18T00:46:04.256Z,94.98
2018-10-18T00:47:04.181Z,94.89
2018-10-18T00:48:04.111Z,94.51
2018-10-18T00:49:04.018Z,94.89
2018-10-18T00:50:03.993Z,95.08
2018-10-18T00:51:03.862Z,94.98
2018-10-18T00:52:03.778Z,95.46
2018-10-18T00:53:03.711Z,95.46
2018-10-18T00:54:03.672Z,95.84
2018-10-18T00:55:03.546Z,95.46
2018-10-18T00:56:03.520Z,95.56
2018-10-18T00:57:03.382Z,94.98
2018-10-18T00:58:03.305Z,95.46
2018-10-18T00:59:03.221Z,95.08
2018-10-18T01:00:03.207Z,94.70
2018-10-18T01:01:03.065Z,94.51
2018-10-18T01:02:03.076Z,94.60
2018-10-18T01:03:02.904Z,94.70
2018-10-18T01:04:02.825Z,94.41
2018-10-18T01:05:02.747Z,94.98
2018-10-18T01:06:02.689Z,94.60
2018-10-18T01:07:02.588Z,94.41
2018-10-18T01:08:02.528Z,94.31
2018-10-18T01:09:02.428Z,94.56
2018-10-18T01:10:02.349Z,94.36
2018-10-18T01:11:02.274Z,94.65
2018-10-18T01:12:02.257Z,94.98
2018-10-18T01:13:02.113Z,95.32
2018-10-18T01:14:02.048Z,94.89
2018-10-18T01:15:01.952Z,94.89
2018-10-18T01:16:01.872Z,95.08
2018-10-18T01:17:01.792Z,95.32
2018-10-18T01:18:01.771Z,95.61
2018-10-18T01:19:01.634Z,95.12
2018-10-18T01:20:01.582Z,94.27
2018-10-18T01:21:01.483Z,94.93
2018-10-18T01:22:01.393Z,95.70
2018-10-18T01:23:01.315Z,95.22
2018-10-18T01:24:01.314Z,95.12
2018-10-18T01:25:01.154Z,95.51
2018-10-18T01:26:01.119Z,96.46
2018-10-18T01:27:01.003Z,95.51
2018-10-18T01:28:00.916Z,95.98
2018-10-18T01:29:00.839Z,95.79
2018-10-18T01:30:00.787Z,95.79
2018-10-18T01:31:00.680Z,95.89
2018-10-18T01:32:00.620Z,95.79
2018-10-18T01:33:00.521Z,95.70
2018-10-18T01:34:00.439Z,95.41
2018-10-18T01:35:00.365Z,95.70
2018-10-18T01:36:00.296Z,95.98
2018-10-18T01:37:00.200Z,96.08
2018-10-18T01:38:00.174Z,96.17
2018-10-18T01:39:00.044Z,95.89
2018-10-18T01:39:59.972Z,95.41
2018-10-18T01:40:59.886Z,95.22
2018-10-18T01:41:59.850Z,95.41
2018-10-18T01:42:59.722Z,94.74
2018-10-18T01:43:59.693Z,94.36
2018-10-18T01:44:59.563Z,94.84
2018-10-18T01:45:59.483Z,95.12
2018-10-18T01:46:59.409Z,95.22
2018-10-18T01:47:59.330Z,95.22
2018-10-18T01:48:59.245Z,95.89
2018-10-18T01:49:59.192Z,96.46
2018-10-18T01:50:59.084Z,95.79
2018-10-18T01:51:59.005Z,95.70
2018-10-18T01:52:58.924Z,95.41
2018-10-18T01:53:58.903Z,95.79
2018-10-18T01:54:58.772Z,95.79
2018-10-18T01:55:58.708Z,96.17
2018-10-18T01:56:58.607Z,95.51
2018-10-18T01:57:58.527Z,95.61
2018-10-18T01:58:58.449Z,95.79
2018-10-18T01:59:58.422Z,96.27
2018-10-18T02:00:58.291Z,96.37
2018-10-18T02:01:58.211Z,95.51
2018-10-18T02:02:58.130Z,95.03
2018-10-18T02:03:58.050Z,95.22
2018-10-18T02:04:57.972Z,96.27
2018-10-18T02:05:57.952Z,96.32
2018-10-18T02:06:57.831Z,96.56
2018-10-18T02:07:57.764Z,96.84
2018-10-18T02:08:57.673Z,96.94
2018-10-18T02:09:57.575Z,96.84
2018-10-18T02:10:57.498Z,96.84
2018-10-18T02:11:57.425Z,96.84
2018-10-18T02:12:57.338Z,96.84
2018-10-18T02:13:57.284Z,96.94
2018-10-18T02:14:57.177Z,96.94
2018-10-18T02:15:57.149Z,96.75
2018-10-18T02:16:57.015Z,96.56
2018-10-18T02:17:56.964Z,96.94
2018-10-18T02:18:56.865Z,96.84
2018-10-18T02:19:56.776Z,96.94
2018-10-18T02:20:56.694Z,96.84
2018-10-18T02:21:56.615Z,96.66
2018-10-18T02:22:56.536Z,96.56
2018-10-18T02:23:56.467Z,96.75
2018-10-18T02:24:56.483Z,96.75
2018-10-18T02:25:56.293Z,96.75
2018-10-18T02:26:56.216Z,96.66
2018-10-18T02:27:56.144Z,96.37
2018-10-18T02:28:56.057Z,96.75
2018-10-18T02:29:56.021Z,96.27
2018-10-18T02:30:55.897Z,96.08
2018-10-18T02:31:55.818Z,96.08
2018-10-18T02:32:55.738Z,96.27
2018-10-18T02:33:55.665Z,96.08
2018-10-18T02:34:55.576Z,96.08
2018-10-18T02:35:55.521Z,96.03
2018-10-18T02:36:55.431Z,96.17
2018-10-18T02:37:55.336Z,95.56
2018-10-18T02:38:55.259Z,96.46
2018-10-18T02:39:55.179Z,95.84
2018-10-18T02:40:55.100Z,96.03
2018-10-18T02:41:55.070Z,96.13
2018-10-18T02:42:54.937Z,96.32
2018-10-18T02:43:54.863Z,96.13
2018-10-18T02:44:54.777Z,96.32
2018-10-18T02:45:54.700Z,96.61
2018-10-18T02:46:54.619Z,96.80
2018-10-18T02:47:54.586Z,96.70
2018-10-18T02:48:54.458Z,96.98
2018-10-18T02:49:54.385Z,96.98
2018-10-18T02:50:54.298Z,96.51
2018-10-18T02:51:54.219Z,96.89
2018-10-18T02:52:54.138Z,97.08
2018-10-18T02:53:54.092Z,96.70
2018-10-18T02:54:53.978Z,96.80
2018-10-18T02:55:53.898Z,96.80
2018-10-18T02:56:53.820Z,96.70
2018-10-18T02:57:53.750Z,96.98
2018-10-18T02:58:53.658Z,96.61
2018-10-18T02:59:53.626Z,96.70
2018-10-18T03:00:53.501Z,96.41
2018-10-18T03:01:53.418Z,96.80
2018-10-18T03:02:53.339Z,96.98
2018-10-18T03:03:53.257Z,96.22
2018-10-18T03:04:53.183Z,96.51
2018-10-18T03:05:53.141Z,96.80
2018-10-18T03:06:53.019Z,96.80
2018-10-18T03:07:52.938Z,96.41
2018-10-18T03:08:52.862Z,96.51
2018-10-18T03:09:52.780Z,96.80
2018-10-18T03:10:52.707Z,97.27
2018-10-18T03:11:52.680Z,96.80
2018-10-18T03:12:52.553Z,96.80
2018-10-18T03:13:52.459Z,96.80
2018-10-18T03:14:52.379Z,96.22
2018-10-18T03:15:52.376Z,96.13
2018-10-18T03:16:52.218Z,96.41
2018-10-18T03:17:52.181Z,95.84
2018-10-18T03:18:52.065Z,95.94
2018-10-18T03:19:51.977Z,96.51
2018-10-18T03:20:51.897Z,96.89
2018-10-18T03:21:51.819Z,96.32
2018-10-18T03:22:51.739Z,96.22
2018-10-18T03:23:51.684Z,96.22
2018-10-18T03:24:51.581Z,96.70
2018-10-18T03:25:51.508Z,96.61
2018-10-18T03:26:51.420Z,96.89
2018-10-18T03:27:51.349Z,96.80
2018-10-18T03:28:51.274Z,96.89
2018-10-18T03:29:51.183Z,96.51
2018-10-18T03:30:51.102Z,96.41
2018-10-18T03:31:51.032Z,96.61
2018-10-18T03:32:50.940Z,96.98
2018-10-18T03:33:50.858Z,96.98
2018-10-18T03:34:50.784Z,96.98
2018-10-18T03:35:50.696Z,96.51
2018-10-18T03:36:50.623Z,96.61
2018-10-18T03:37:50.538Z,96.70
2018-10-18T03:38:50.460Z,96.98
2018-10-18T03:39:50.382Z,97.08
2018-10-18T03:40:50.296Z,97.08
2018-10-18T03:41:50.217Z,96.89
2018-10-18T03:42:50.138Z,97.08
2018-10-18T03:43:50.055Z,97.46
2018-10-18T03:44:49.985Z,97.56
2018-10-18T03:45:49.901Z,97.99
2018-10-18T03:46:49.816Z,98.46
2018-10-18T03:47:49.734Z,98.36
2018-10-18T03:48:49.663Z,98.65
2018-10-18T03:49:49.574Z,99.13
2018-10-18T03:50:49.496Z,99.51
2018-10-18T03:51:49.414Z,99.04
2018-10-18T03:52:49.340Z,99.13
2018-10-18T03:53:49.251Z,99.22
2018-10-18T03:54:49.171Z,99.32
2018-10-18T03:55:49.091Z,99.13
2018-10-18T03:56:49.011Z,99.89
2018-10-18T03:57:48.952Z,99.13
2018-10-18T03:58:48.850Z,99.32
2018-10-18T03:59:48.891Z,99.22
2018-10-18T04:00:48.687Z,99.89
2018-10-18T04:01:48.610Z,98.94
2018-10-18T04:02:48.528Z,98.85
2018-10-18T04:03:48.449Z,99.22
2018-10-18T04:04:48.365Z,98.94
2018-10-18T04:05:48.283Z,99.13
2018-10-18T04:06:48.205Z,98.94
2018-10-18T04:07:48.125Z,98.36
2018-10-18T04:08:48.046Z,98.27
2018-10-18T04:09:47.962Z,98.46
2018-10-18T04:10:47.881Z,98.75
2018-10-18T04:11:47.800Z,98.75
2018-10-18T04:12:47.809Z,98.65
2018-10-18T04:13:47.640Z,98.46
2018-10-18T04:14:47.581Z,98.56
2018-10-18T04:15:47.492Z,98.65
2018-10-18T04:16:47.407Z,98.85
2018-10-18T04:17:47.373Z,99.04
2018-10-18T04:18:47.241Z,99.32
2018-10-18T04:19:47.155Z,99.51
2018-10-18T04:20:47.075Z,99.04
2018-10-18T04:21:47.002Z,98.27
2018-10-18T04:22:46.914Z,99.13
2018-10-18T04:23:46.833Z,99.32
2018-10-18T04:24:46.757Z,98.36
2018-10-18T04:25:46.672Z,98.36
2018-10-18T04:26:46.594Z,98.65
2018-10-18T04:27:46.513Z,98.18
2018-10-18T04:28:46.435Z,98.27
2018-10-18T04:29:46.353Z,97.99
2018-10-18T04:30:46.271Z,98.27
2018-10-18T04:31:46.191Z,98.36
2018-10-18T04:32:46.108Z,98.94
2018-10-18T04:33:46.029Z,99.22
2018-10-18T04:34:45.949Z,98.94
2018-10-18T04:35:45.868Z,98.46
2018-10-18T04:36:45.787Z,98.75
2018-10-18T04:37:45.716Z,98.75
2018-10-18T04:38:45.627Z,98.46
2018-10-18T04:39:45.545Z,98.46
2018-10-18T04:40:45.464Z,98.65
2018-10-18T04:41:45.387Z,98.46
2018-10-18T04:42:45.311Z,98.56
2018-10-18T04:43:45.241Z,98.46
2018-10-18T04:44:45.147Z,98.65
2018-10-18T04:45:45.071Z,98.85
2018-10-18T04:46:44.988Z,98.65
2018-10-18T04:47:45.008Z,98.46
2018-10-18T04:48:44.871Z,98.65
2018-10-18T04:49:44.750Z,98.56
2018-10-18T04:50:44.658Z,98.94
2018-10-18T04:51:44.581Z,99.22
2018-10-18T04:52:44.499Z,98.94
2018-10-18T04:53:44.419Z,99.22
2018-10-18T04:54:44.342Z,99.13
2018-10-18T04:55:44.264Z,99.13
2018-10-18T04:56:44.240Z,99.32
2018-10-18T04:57:44.096Z,99.51
2018-10-18T04:58:44.016Z,99.04
2018-10-18T04:59:43.932Z,99.04
2018-10-18T05:00:43.854Z,98.85
2018-10-18T05:01:43.773Z,98.46
2018-10-18T05:02:43.789Z,98.75
2018-10-18T05:03:43.614Z,98.65
2018-10-18T05:04:43.533Z,98.65
2018-10-18T05:05:43.453Z,98.46
2018-10-18T05:06:43.374Z,98.46
2018-10-18T05:07:43.290Z,98.36
2018-10-18T05:08:43.211Z,98.46
2018-10-18T05:09:43.138Z,98.56
2018-10-18T05:10:43.051Z,98.36
2018-10-18T05:11:42.975Z,98.75
2018-10-18T05:12:42.967Z,98.75
2018-10-18T05:13:42.806Z,98.18
2018-10-18T05:14:42.728Z,98.36
2018-10-18T05:15:42.644Z,98.27
2018-10-18T05:16:42.568Z,99.22
2018-10-18T05:17:42.485Z,99.22
2018-10-18T05:18:42.406Z,98.94
2018-10-18T05:19:42.324Z,98.46
2018-10-18T05:20:42.244Z,98.36
2018-10-18T05:21:42.165Z,98.27
2018-10-18T05:22:42.084Z,98.18
2018-10-18T05:23:42.022Z,99.04
2018-10-18T05:24:41.923Z,99.22
2018-10-18T05:25:41.959Z,98.94
2018-10-18T05:26:41.764Z,98.36
2018-10-18T05:27:41.680Z,98.27
2018-10-18T05:28:41.601Z,98.27
2018-10-18T05:29:41.519Z,98.27
2018-10-18T05:30:41.440Z,98.65
2018-10-18T05:31:41.437Z,98.36
2018-10-18T05:32:41.278Z,98.27
2018-10-18T05:33:41.209Z,98.75
2018-10-18T05:34:41.118Z,98.65
2018-10-18T05:35:41.036Z,98.27
2018-10-18T05:36:40.997Z,98.65
2018-10-18T05:37:40.890Z,98.65
2018-10-18T05:38:40.794Z,98.46
2018-10-18T05:39:40.724Z,99.22
2018-10-18T05:40:40.661Z,98.75
2018-10-18T05:41:40.552Z,98.94
2018-10-18T05:42:40.473Z,98.94
2018-10-18T05:43:40.395Z,98.85
2018-10-18T05:44:40.311Z,98.18
2018-10-18T05:45:40.234Z,99.22
2018-10-18T05:46:40.198Z,99.32
2018-10-18T05:47:40.069Z,99.27
2018-10-18T05:48:39.987Z,99.41
2018-10-18T05:49:39.906Z,99.32
2018-10-18T05:50:39.830Z,99.41
2018-10-18T05:51:39.745Z,99.32
2018-10-18T05:52:39.667Z,99.51
2018-10-18T05:53:39.709Z,99.70
2018-10-18T05:54:39.517Z,99.80
2018-10-18T05:55:39.424Z,99.70
2018-10-18T05:56:39.345Z,99.70
2018-10-18T05:57:39.264Z,99.60
2018-10-18T05:58:39.190Z,99.51
2018-10-18T05:59:39.106Z,99.99
2018-10-18T06:00:39.022Z,99.70
2018-10-18T06:01:38.941Z,99.41
2018-10-18T06:02:38.864Z,99.89
2018-10-18T06:03:38.779Z,99.80
2018-10-18T06:04:38.706Z,99.70
2018-10-18T06:05:38.629Z,99.22
2018-10-18T06:06:38.542Z,99.89
2018-10-18T06:07:38.458Z,99.70
2018-10-18T06:08:38.380Z,99.99
2018-10-18T06:09:38.298Z,99.99
2018-10-18T06:10:38.316Z,99.99
2018-10-18T06:11:38.139Z,99.99
2018-10-18T06:12:38.062Z,99.99
2018-10-18T06:13:37.984Z,99.99
2018-10-18T06:14:37.915Z,99.99
2018-10-18T06:15:37.815Z,99.99
2018-10-18T06:16:37.734Z,99.99
2018-10-18T06:17:37.652Z,99.99
2018-10-18T06:18:37.572Z,99.99
2018-10-18T06:19:37.495Z,99.99
2018-10-18T06:20:37.412Z,99.99
2018-10-18T06:21:37.332Z,99.99
2018-10-18T06:22:37.294Z,99.99
2018-10-18T06:23:37.203Z,99.99
2018-10-18T06:24:37.091Z,99.99
2018-10-18T06:25:37.124Z,99.99
2018-10-18T06:26:36.942Z,99.99
2018-10-18T06:27:36.854Z,99.99
2018-10-18T06:28:36.772Z,99.70
2018-10-18T06:29:36.691Z,99.70
2018-10-18T06:30:36.610Z,99.51
2018-10-18T06:31:36.541Z,99.60
2018-10-18T06:32:36.490Z,99.41
2018-10-18T06:33:36.376Z,99.51
2018-10-18T06:34:36.288Z,99.70
2018-10-18T06:35:36.211Z,99.99
2018-10-18T06:36:36.133Z,99.80
2018-10-18T06:37:36.125Z,99.70
2018-10-18T06:38:35.967Z,99.99
2018-10-18T06:39:35.888Z,99.99
2018-10-18T06:40:35.807Z,99.99
2018-10-18T06:41:35.727Z,99.99
2018-10-18T06:42:35.654Z,99.99
2018-10-18T06:43:35.571Z,99.99
2018-10-18T06:44:35.483Z,99.99
2018-10-18T06:45:35.406Z,99.99
2018-10-18T06:46:35.324Z,99.99
2018-10-18T06:47:35.308Z,99.99
2018-10-18T06:48:35.166Z,99.99
2018-10-18T06:49:35.094Z,99.99
2018-10-18T06:50:35.016Z,99.99
2018-10-18T06:51:34.925Z,99.99
2018-10-18T06:52:34.847Z,99.99
2018-10-18T06:53:34.765Z,99.99
2018-10-18T06:54:34.682Z,99.99
2018-10-18T06:55:34.602Z,99.99
2018-10-18T06:56:34.525Z,99.99
2018-10-18T06:57:34.441Z,99.99
2018-10-18T06:58:34.363Z,99.99
2018-10-18T06:59:34.285Z,99.99
2018-10-18T07:00:34.204Z,99.99
2018-10-18T07:01:34.123Z,99.99
2018-10-18T07:02:34.045Z,99.99
2018-10-18T07:03:33.960Z,99.99
2018-10-18T07:04:33.890Z,99.99
2018-10-18T07:05:33.801Z,99.99
2018-10-18T07:06:33.724Z,99.99
2018-10-18T07:07:33.642Z,99.99
2018-10-18T07:08:33.563Z,99.99
2018-10-18T07:09:33.489Z,99.99
2018-10-18T07:10:33.401Z,99.99
2018-10-18T07:11:33.322Z,99.99
2018-10-18T07:12:33.246Z,99.99
2018-10-18T07:13:33.170Z,99.99
2018-10-18T07:14:33.086Z,99.99
2018-10-18T07:15:33.003Z,99.99
2018-10-18T07:16:32.931Z,99.99
2018-10-18T07:17:32.898Z,99.99
2018-10-18T07:18:32.771Z,99.99
2018-10-18T07:19:32.686Z,99.99
2018-10-18T07:20:32.623Z,99.99
2018-10-18T07:21:32.524Z,99.99
2018-10-18T07:22:32.446Z,99.99
2018-10-18T07:23:32.368Z,99.99
2018-10-18T07:24:32.288Z,99.99
2018-10-18T07:25:32.208Z,99.99
2018-10-18T07:26:32.141Z,99.99
2018-10-18T07:27:32.047Z,99.99
2018-10-18T07:28:31.979Z,99.99
2018-10-18T07:29:31.887Z,99.99
2018-10-18T07:30:31.809Z,99.99
2018-10-18T07:31:31.778Z,99.99
2018-10-18T07:32:31.648Z,99.99
2018-10-18T07:33:31.577Z,99.99
2018-10-18T07:34:31.490Z,99.99
2018-10-18T07:35:31.411Z,99.99
2018-10-18T07:36:31.337Z,99.99
2018-10-18T07:37:31.253Z,99.99
2018-10-18T07:38:31.175Z,99.99
2018-10-18T07:39:31.114Z,99.99
2018-10-18T07:40:31.014Z,99.99
2018-10-18T07:41:30.938Z,99.99
2018-10-18T07:42:30.873Z,99.99
2018-10-18T07:43:30.777Z,99.99
2018-10-18T07:44:30.700Z,99.99
2018-10-18T07:45:30.618Z,99.99
2018-10-18T07:46:30.540Z,99.99
2018-10-18T07:47:30.476Z,99.99
2018-10-18T07:48:30.381Z,99.99
2018-10-18T07:49:30.307Z,99.99
2018-10-18T07:50:30.224Z,99.99
2018-10-18T07:51:30.142Z,99.99
2018-10-18T07:52:30.071Z,99.99
2018-10-18T07:53:30.007Z,99.99
2018-10-18T07:54:29.908Z,99.99
2018-10-18T07:55:29.826Z,99.99
2018-10-18T07:56:29.751Z,99.99
2018-10-18T07:57:29.671Z,99.99
2018-10-18T07:58:29.595Z,99.99
2018-10-18T07:59:29.516Z,99.99
2018-10-18T08:00:29.516Z,99.99
2018-10-18T08:01:29.356Z,99.99
2018-10-18T08:02:29.279Z,99.99
2018-10-18T08:03:29.200Z,99.99
2018-10-18T08:04:29.119Z,99.99
2018-10-18T08:05:29.042Z,99.99
2018-10-18T08:06:28.969Z,99.99
2018-10-18T08:07:28.887Z,99.99
2018-10-18T08:08:28.808Z,99.99
2018-10-18T08:09:28.735Z,99.99
2018-10-18T08:10:28.656Z,99.99
2018-10-18T08:11:28.577Z,99.99
2018-10-18T08:12:28.501Z,99.99
2018-10-18T08:13:28.413Z,99.99
2018-10-18T08:14:28.337Z,99.99
2018-10-18T08:15:28.259Z,99.99
2018-10-18T08:16:28.184Z,99.99
2018-10-18T08:17:28.176Z,99.99
2018-10-18T08:18:28.023Z,99.99
2018-10-18T08:19:27.946Z,99.99
2018-10-18T08:20:27.868Z,99.99
2018-10-18T08:21:27.788Z,99.99
2018-10-18T08:22:27.775Z,99.99
2018-10-18T08:23:27.640Z,99.99
2018-10-18T08:24:27.556Z,99.99
2018-10-18T08:25:27.484Z,99.99
2018-10-18T08:26:27.398Z,99.99
2018-10-18T08:27:27.321Z,99.99
2018-10-18T08:28:27.242Z,99.99
2018-10-18T08:29:27.163Z,99.99
2018-10-18T08:30:27.111Z,99.99
2018-10-18T08:31:27.126Z,99.99
2018-10-18T08:32:26.933Z,99.99
2018-10-18T08:33:26.849Z,99.99
2018-10-18T08:34:26.773Z,99.99
2018-10-18T08:35:26.707Z,99.99
2018-10-18T08:36:26.625Z,99.99
2018-10-18T08:37:26.554Z,99.99
2018-10-18T08:38:26.460Z,99.99
2018-10-18T08:39:26.453Z,99.99
2018-10-18T08:40:26.304Z,99.99
2018-10-18T08:41:26.232Z,99.99
2018-10-18T08:42:26.158Z,99.99
2018-10-18T08:43:26.074Z,99.99
2018-10-18T08:44:26.056Z,99.99
2018-10-18T08:45:25.930Z,99.99
2018-10-18T08:46:25.839Z,99.99
2018-10-18T08:47:25.758Z,99.99
2018-10-18T08:48:25.687Z,99.99
2018-10-18T08:49:25.610Z,99.99
2018-10-18T08:50:25.527Z,99.99
2018-10-18T08:51:25.451Z,99.99
2018-10-18T08:52:25.374Z,99.99
2018-10-18T08:53:25.294Z,99.99
2018-10-18T08:54:25.234Z,99.99
2018-10-18T08:55:25.165Z,99.99
2018-10-18T08:56:25.063Z,99.99
2018-10-18T08:57:24.984Z,99.99
2018-10-18T08:58:24.907Z,99.99
2018-10-18T08:59:24.893Z,99.99
2018-10-18T09:00:24.751Z,99.99
2018-10-18T09:01:24.680Z,99.99
2018-10-18T09:02:24.606Z,99.99
2018-10-18T09:03:24.520Z,99.99
2018-10-18T09:04:24.446Z,99.99
2018-10-18T09:05:24.367Z,99.99
2018-10-18T09:06:24.290Z,99.99
2018-10-18T09:07:24.211Z,99.99
2018-10-18T09:08:24.137Z,99.99
2018-10-18T09:09:24.060Z,99.99
2018-10-18T09:10:23.992Z,99.62
2018-10-18T09:11:23.906Z,99.71
2018-10-18T09:12:23.829Z,99.04
2018-10-18T09:13:23.763Z,98.90
2018-10-18T09:14:23.674Z,98.38
2018-10-18T09:15:23.596Z,99.19
2018-10-18T09:16:23.528Z,98.81
2018-10-18T09:17:23.444Z,98.04
2018-10-18T09:18:23.373Z,98.43
2018-10-18T09:19:23.290Z,98.14
2018-10-18T09:20:23.211Z,98.52
2018-10-18T09:21:23.144Z,98.52
2018-10-18T09:22:23.100Z,98.90
2018-10-18T09:23:22.982Z,98.14
2018-10-18T09:24:22.956Z,97.75
2018-10-18T09:25:22.830Z,97.85
2018-10-18T09:26:22.759Z,97.47
2018-10-18T09:27:22.678Z,97.75
2018-10-18T09:28:22.598Z,97.85
2018-10-18T09:29:22.526Z,98.52
2018-10-18T09:30:22.517Z,98.14
2018-10-18T09:31:22.372Z,97.75
2018-10-18T09:32:22.293Z,97.18
2018-10-18T09:33:22.216Z,96.80
2018-10-18T09:34:22.147Z,96.42
2018-10-18T09:35:22.069Z,96.03
2018-10-18T09:36:22.046Z,96.42
2018-10-18T09:37:21.933Z,96.22
2018-10-18T09:38:21.895Z,95.84
2018-10-18T09:39:21.762Z,96.37
2018-10-18T09:40:21.680Z,96.70
2018-10-18T09:41:21.607Z,97.08
2018-10-18T09:42:21.529Z,97.18
2018-10-18T09:43:21.452Z,97.33
2018-10-18T09:44:21.504Z,97.61
2018-10-18T09:45:21.298Z,97.28
2018-10-18T09:46:21.222Z,97.42
2018-10-18T09:47:21.145Z,97.52
2018-10-18T09:48:21.070Z,98.09
2018-10-18T09:49:21.005Z,98.00
2018-10-18T09:50:20.916Z,98.00
2018-10-18T09:51:20.848Z,97.42
2018-10-18T09:52:20.774Z,97.28
2018-10-18T09:53:20.692Z,97.42
2018-10-18T09:54:20.611Z,97.90
2018-10-18T09:55:20.581Z,97.23
2018-10-18T09:56:20.465Z,96.94
2018-10-18T09:57:20.381Z,97.42
2018-10-18T09:58:20.387Z,96.75
2018-10-18T09:59:20.231Z,97.42
2018-10-18T10:00:20.155Z,97.61
2018-10-18T10:01:20.077Z,97.04
2018-10-18T10:02:20.004Z,97.33
2018-10-18T10:03:19.924Z,97.52
2018-10-18T10:04:19.929Z,97.33
2018-10-18T10:05:19.772Z,97.42
2018-10-18T10:06:19.705Z,97.80
2018-10-18T10:07:19.632Z,97.90
2018-10-18T10:08:19.546Z,96.08
2018-10-18T10:09:19.469Z,95.22
2018-10-18T10:10:19.397Z,95.61
2018-10-18T10:11:19.315Z,96.27
2018-10-18T10:12:19.245Z,96.18
2018-10-18T10:13:19.305Z,96.18
2018-10-18T10:14:19.094Z,96.56
2018-10-18T10:15:19.011Z,96.56
2018-10-18T10:16:18.932Z,96.27
2018-10-18T10:17:18.873Z,95.98
2018-10-18T10:18:18.842Z,96.66
2018-10-18T10:19:18.746Z,96.37
2018-10-18T10:20:18.629Z,96.66
2018-10-18T10:21:18.555Z,96.66
2018-10-18T10:22:18.479Z,96.84
2018-10-18T10:23:18.401Z,96.75
2018-10-18T10:24:18.329Z,96.94
2018-10-18T10:25:18.294Z,96.61
2018-10-18T10:26:18.178Z,96.03
2018-10-18T10:27:18.098Z,96.32
2018-10-18T10:28:18.025Z,96.51
2018-10-18T10:29:17.944Z,96.42
2018-10-18T10:30:17.912Z,95.94
2018-10-18T10:31:17.833Z,96.32
2018-10-18T10:32:17.725Z,95.65
2018-10-18T10:33:17.697Z,95.36
2018-10-18T10:34:17.567Z,94.79
2018-10-18T10:35:17.562Z,95.84
2018-10-18T10:36:17.417Z,96.13
2018-10-18T10:37:17.468Z,95.94
2018-10-18T10:38:17.264Z,95.46
2018-10-18T10:39:17.202Z,94.89
2018-10-18T10:40:17.282Z,95.56
2018-10-18T10:41:17.140Z,95.27
2018-10-18T10:42:17.022Z,95.36
2018-10-18T10:43:16.887Z,94.79
2018-10-18T10:44:16.840Z,96.13
2018-10-18T10:45:16.827Z,96.03
2018-10-18T10:46:16.782Z,95.75
2018-10-18T10:47:16.583Z,96.03
2018-10-18T10:48:16.590Z,96.80
2018-10-18T10:49:16.542Z,96.32
2018-10-18T10:50:16.393Z,96.22
2018-10-18T10:51:16.428Z,96.75
2018-10-18T10:52:16.285Z,95.98
2018-10-18T10:53:16.133Z,95.41
2018-10-18T10:54:16.091Z,95.31
2018-10-18T10:55:15.979Z,95.31
2018-10-18T10:56:15.954Z,95.22
2018-10-18T10:57:15.912Z,94.64
2018-10-18T10:58:15.802Z,95.70
2018-10-18T10:59:15.681Z,95.22
2018-10-18T11:00:15.686Z,95.41
2018-10-18T11:01:15.549Z,95.31
2018-10-18T11:02:15.581Z,95.89
2018-10-18T11:03:15.454Z,95.79
2018-10-18T11:04:15.306Z,93.35
2018-10-18T11:05:15.230Z,92.68
2018-10-18T11:06:15.308Z,91.34
2018-10-18T11:07:15.082Z,91.53
2018-10-18T11:08:15.101Z,92.63
2018-10-18T11:09:14.998Z,91.77
2018-10-18T11:10:14.926Z,91.24
2018-10-18T11:11:14.838Z,90.95
2018-10-18T11:12:14.821Z,90.47
2018-10-18T11:13:14.672Z,90.13
2018-10-18T11:14:14.644Z,89.36
2018-10-18T11:15:14.634Z,89.17
2018-10-18T11:16:14.453Z,88.11
2018-10-18T11:17:14.505Z,87.58
2018-10-18T11:18:14.459Z,86.62
2018-10-18T11:19:14.265Z,85.47
2018-10-18T11:20:14.267Z,83.40
2018-10-18T11:21:14.210Z,82.82
2018-10-18T11:22:14.059Z,82.92
2018-10-18T11:23:14.012Z,81.42
2018-10-18T11:24:14.060Z,78.44
2018-10-18T11:25:13.842Z,78.92
2018-10-18T11:26:13.896Z,80.11
2018-10-18T11:27:13.889Z,79.92
2018-10-18T11:28:13.638Z,79.30
2018-10-18T11:29:13.573Z,78.48
2018-10-18T11:30:13.580Z,79.15
2018-10-18T11:31:13.471Z,78.86
2018-10-18T11:32:13.473Z,78.48
2018-10-18T11:33:13.383Z,76.59
2018-10-18T11:34:13.300Z,77.36
2018-10-18T11:35:13.206Z,76.01
2018-10-18T11:36:13.286Z,75.82
2018-10-18T11:37:13.119Z,75.82
2018-10-18T11:38:13.092Z,76.01
2018-10-18T11:39:12.921Z,76.44
2018-10-18T11:40:12.851Z,76.92
2018-10-18T11:41:12.809Z,74.41
2018-10-18T11:42:12.850Z,73.39
2018-10-18T11:43:12.646Z,70.44
2018-10-18T11:44:12.620Z,70.35
2018-10-18T11:45:12.544Z,68.71
2018-10-18T11:46:12.467Z,69.57
2018-10-18T11:47:12.429Z,69.03
2018-10-18T11:48:12.397Z,68.65
2018-10-18T11:49:12.291Z,67.78
2018-10-18T11:50:12.335Z,66.56
2018-10-18T11:51:12.147Z,63.89
2018-10-18T11:52:12.150Z,62.92
2018-10-18T11:53:12.043Z,62.76
2018-10-18T11:54:12.043Z,62.28
2018-10-18T11:55:11.908Z,60.06
2018-10-18T11:56:11.895Z,58.80
2018-10-18T11:57:11.808Z,59.22
2018-10-18T11:58:11.720Z,61.05
2018-10-18T11:59:11.763Z,61.15
2018-10-18T12:00:11.597Z,59.99
2018-10-18T12:01:11.589Z,59.83
2018-10-18T12:02:11.466Z,60.21
2018-10-18T12:03:11.404Z,57.79
2018-10-18T12:04:11.722Z,57.92
2018-10-18T12:05:11.325Z,57.34
2018-10-18T12:06:11.232Z,57.15
2018-10-18T12:07:11.177Z,56.98
2018-10-18T12:08:11.257Z,57.08
2018-10-18T12:09:11.073Z,56.88
2018-10-18T12:10:10.992Z,55.05
2018-10-18T12:11:10.995Z,55.02
2018-10-18T12:12:10.881Z,56.11
2018-10-18T12:13:10.830Z,55.53
2018-10-18T12:14:10.815Z,55.15
2018-10-18T12:15:10.697Z,55.53
2018-10-18T12:16:10.616Z,56.30
2018-10-18T12:17:10.620Z,56.79
2018-10-18T12:18:10.531Z,56.30
2018-10-18T12:19:10.445Z,54.66
2018-10-18T12:20:10.436Z,55.24
2018-10-18T12:21:10.271Z,55.15
2018-10-18T12:22:10.195Z,55.21
2018-10-18T12:23:10.208Z,56.28
2018-10-18T12:24:10.072Z,55.21
2018-10-18T12:25:10.011Z,56.28
2018-10-18T12:26:10.047Z,56.73
2018-10-18T12:27:09.966Z,56.35
2018-10-18T12:28:09.873Z,56.25
2018-10-18T12:29:09.956Z,57.12
2018-10-18T12:30:09.760Z,58.09
2018-10-18T12:31:09.708Z,58.64
2018-10-18T12:32:09.719Z,59.22
2018-10-18T12:33:09.518Z,59.22
2018-10-18T12:34:09.473Z,58.54
2018-10-18T12:35:09.420Z,59.12
2018-10-18T12:36:09.365Z,59.31
2018-10-18T12:37:11.034Z,59.31
2018-10-18T12:38:09.314Z,59.41
2018-10-18T12:39:09.171Z,58.54
2018-10-18T12:40:09.135Z,58.25
2018-10-18T12:41:09.187Z,59.12
2018-10-18T12:42:08.952Z,59.00
2018-10-18T12:43:08.897Z,59.02
2018-10-18T12:44:08.923Z,59.02
2018-10-18T12:45:08.764Z,58.83
2018-10-18T12:46:08.700Z,57.84
2018-10-18T12:48:08.693Z,57.54
2018-10-18T12:49:08.515Z,56.00
2018-10-18T12:50:08.514Z,55.52
2018-10-18T12:51:08.385Z,56.39
2018-10-18T12:52:08.318Z,57.74